sensor_id;sensor_type;location;lat;lon;timestamp;P1;durP1;ratioP1;P2;durP2;ratioP2
78740;SDS011;68062;48.726;9.370;2024-01-30T00:02:19;17.57;;;15.23;;
78740;SDS011;68062;48.726;9.370;2024-01-30T00:04:47;22.17;;;14.30;;
78740;SDS011;68062;48.726;9.370;2024-01-30T00:07:17;19.93;;;14.30;;
78740;SDS011;68062;48.726;9.370;2024-01-30T00:09:46;21.40;;;15.63;;
78740;SDS011;68062;48.726;9.370;2024-01-30T00:12:14;19.00;;;13.93;;
78740;SDS011;68062;48.726;9.370;2024-01-30T00:14:42;16.93;;;13.40;;
78740;SDS011;68062;48.726;9.370;2024-01-30T00:17:10;21.43;;;15.13;;
78740;SDS011;68062;48.726;9.370;2024-01-30T00:19:39;21.20;;;14.83;;
78740;SDS011;68062;48.726;9.370;2024-01-30T00:22:06;16.33;;;13.20;;
78740;SDS011;68062;48.726;9.370;2024-01-30T00:24:36;23.50;;;15.87;;
78740;SDS011;68062;48.726;9.370;2024-01-30T00:27:04;18.67;;;14.03;;
78740;SDS011;68062;48.726;9.370;2024-01-30T00:29:32;18.73;;;13.80;;
78740;SDS011;68062;48.726;9.370;2024-01-30T00:32:00;17.43;;;12.93;;
78740;SDS011;68062;48.726;9.370;2024-01-30T00:34:28;18.67;;;13.30;;
78740;SDS011;68062;48.726;9.370;2024-01-30T00:36:56;22.30;;;15.03;;
78740;SDS011;68062;48.726;9.370;2024-01-30T00:39:24;21.37;;;14.40;;
78740;SDS011;68062;48.726;9.370;2024-01-30T00:41:53;17.20;;;13.70;;
78740;SDS011;68062;48.726;9.370;2024-01-30T00:44:21;20.07;;;14.57;;
78740;SDS011;68062;48.726;9.370;2024-01-30T00:46:49;17.73;;;14.83;;
78740;SDS011;68062;48.726;9.370;2024-01-30T00:49:17;20.20;;;14.83;;
78740;SDS011;68062;48.726;9.370;2024-01-30T00:51:45;23.90;;;15.00;;
78740;SDS011;68062;48.726;9.370;2024-01-30T00:54:14;20.27;;;15.70;;
78740;SDS011;68062;48.726;9.370;2024-01-30T00:56:43;20.13;;;15.20;;
78740;SDS011;68062;48.726;9.370;2024-01-30T00:59:12;18.07;;;14.73;;
78740;SDS011;68062;48.726;9.370;2024-01-30T01:01:41;19.07;;;13.40;;
78740;SDS011;68062;48.726;9.370;2024-01-30T01:04:09;17.03;;;13.60;;
78740;SDS011;68062;48.726;9.370;2024-01-30T01:06:37;17.27;;;13.90;;
78740;SDS011;68062;48.726;9.370;2024-01-30T01:09:05;23.80;;;14.43;;
78740;SDS011;68062;48.726;9.370;2024-01-30T01:11:33;20.90;;;14.33;;
78740;SDS011;68062;48.726;9.370;2024-01-30T01:14:01;17.90;;;13.33;;
78740;SDS011;68062;48.726;9.370;2024-01-30T01:16:30;20.53;;;14.30;;
78740;SDS011;68062;48.726;9.370;2024-01-30T01:18:57;20.03;;;15.20;;
78740;SDS011;68062;48.726;9.370;2024-01-30T01:21:27;18.77;;;14.50;;
78740;SDS011;68062;48.726;9.370;2024-01-30T01:23:54;20.47;;;14.50;;
78740;SDS011;68062;48.726;9.370;2024-01-30T01:26:23;20.50;;;14.60;;
78740;SDS011;68062;48.726;9.370;2024-01-30T01:28:51;20.10;;;15.20;;
78740;SDS011;68062;48.726;9.370;2024-01-30T01:31:19;18.17;;;13.83;;
78740;SDS011;68062;48.726;9.370;2024-01-30T01:33:52;17.27;;;12.87;;
78740;SDS011;68062;48.726;9.370;2024-01-30T01:36:20;15.70;;;12.80;;
78740;SDS011;68062;48.726;9.370;2024-01-30T01:38:48;21.13;;;13.80;;
78740;SDS011;68062;48.726;9.370;2024-01-30T01:41:16;21.20;;;13.80;;
78740;SDS011;68062;48.726;9.370;2024-01-30T01:43:44;20.50;;;14.00;;
78740;SDS011;68062;48.726;9.370;2024-01-30T01:46:12;16.80;;;12.63;;
78740;SDS011;68062;48.726;9.370;2024-01-30T01:48:41;20.53;;;14.17;;
78740;SDS011;68062;48.726;9.370;2024-01-30T01:51:11;18.87;;;13.87;;
78740;SDS011;68062;48.726;9.370;2024-01-30T01:53:39;17.23;;;12.90;;
78740;SDS011;68062;48.726;9.370;2024-01-30T01:56:07;17.37;;;13.23;;
78740;SDS011;68062;48.726;9.370;2024-01-30T01:58:35;21.10;;;14.37;;
78740;SDS011;68062;48.726;9.370;2024-01-30T02:01:05;18.37;;;13.20;;
78740;SDS011;68062;48.726;9.370;2024-01-30T02:03:33;19.97;;;13.87;;
78740;SDS011;68062;48.726;9.370;2024-01-30T02:06:02;19.87;;;13.30;;
78740;SDS011;68062;48.726;9.370;2024-01-30T02:08:32;16.40;;;13.63;;
78740;SDS011;68062;48.726;9.370;2024-01-30T02:11:00;20.67;;;13.00;;
78740;SDS011;68062;48.726;9.370;2024-01-30T02:13:28;19.40;;;14.00;;
78740;SDS011;68062;48.726;9.370;2024-01-30T02:15:56;15.43;;;12.43;;
78740;SDS011;68062;48.726;9.370;2024-01-30T02:18:24;18.80;;;14.07;;
78740;SDS011;68062;48.726;9.370;2024-01-30T02:20:53;19.67;;;12.83;;
78740;SDS011;68062;48.726;9.370;2024-01-30T02:23:25;18.70;;;14.37;;
78740;SDS011;68062;48.726;9.370;2024-01-30T02:25:53;21.00;;;13.40;;
78740;SDS011;68062;48.726;9.370;2024-01-30T02:28:21;25.73;;;15.03;;
78740;SDS011;68062;48.726;9.370;2024-01-30T02:30:49;24.73;;;15.63;;
78740;SDS011;68062;48.726;9.370;2024-01-30T02:33:17;19.87;;;13.90;;
78740;SDS011;68062;48.726;9.370;2024-01-30T02:35:45;21.17;;;14.97;;
78740;SDS011;68062;48.726;9.370;2024-01-30T02:38:14;18.10;;;13.83;;
78740;SDS011;68062;48.726;9.370;2024-01-30T02:40:44;20.80;;;14.43;;
78740;SDS011;68062;48.726;9.370;2024-01-30T02:43:12;18.47;;;13.20;;
78740;SDS011;68062;48.726;9.370;2024-01-30T02:45:40;18.87;;;13.57;;
78740;SDS011;68062;48.726;9.370;2024-01-30T02:48:08;18.83;;;12.77;;
78740;SDS011;68062;48.726;9.370;2024-01-30T02:50:36;18.40;;;13.43;;
78740;SDS011;68062;48.726;9.370;2024-01-30T02:53:04;19.63;;;13.80;;
78740;SDS011;68062;48.726;9.370;2024-01-30T02:55:32;20.50;;;15.10;;
78740;SDS011;68062;48.726;9.370;2024-01-30T02:58:01;14.07;;;12.10;;
78740;SDS011;68062;48.726;9.370;2024-01-30T03:00:30;19.20;;;13.80;;
78740;SDS011;68062;48.726;9.370;2024-01-30T03:02:57;19.63;;;13.40;;
78740;SDS011;68062;48.726;9.370;2024-01-30T03:05:26;21.30;;;14.17;;
78740;SDS011;68062;48.726;9.370;2024-01-30T03:07:54;18.70;;;13.43;;
78740;SDS011;68062;48.726;9.370;2024-01-30T03:10:22;14.37;;;13.00;;
78740;SDS011;68062;48.726;9.370;2024-01-30T03:12:50;22.40;;;15.83;;
78740;SDS011;68062;48.726;9.370;2024-01-30T03:15:19;25.77;;;14.93;;
78740;SDS011;68062;48.726;9.370;2024-01-30T03:17:47;20.27;;;14.60;;
78740;SDS011;68062;48.726;9.370;2024-01-30T03:20:15;21.60;;;13.80;;
78740;SDS011;68062;48.726;9.370;2024-01-30T03:22:43;19.70;;;13.37;;
78740;SDS011;68062;48.726;9.370;2024-01-30T03:25:11;20.70;;;14.43;;
78740;SDS011;68062;48.726;9.370;2024-01-30T03:27:39;19.80;;;14.53;;
78740;SDS011;68062;48.726;9.370;2024-01-30T03:30:08;19.83;;;14.27;;
78740;SDS011;68062;48.726;9.370;2024-01-30T03:32:37;16.17;;;13.53;;
78740;SDS011;68062;48.726;9.370;2024-01-30T03:35:06;18.37;;;12.50;;
78740;SDS011;68062;48.726;9.370;2024-01-30T03:37:34;23.90;;;14.07;;
78740;SDS011;68062;48.726;9.370;2024-01-30T03:40:02;20.83;;;14.10;;
78740;SDS011;68062;48.726;9.370;2024-01-30T03:42:30;21.93;;;14.50;;
78740;SDS011;68062;48.726;9.370;2024-01-30T03:44:59;26.63;;;14.70;;
78740;SDS011;68062;48.726;9.370;2024-01-30T03:47:27;22.17;;;15.27;;
78740;SDS011;68062;48.726;9.370;2024-01-30T03:49:56;22.10;;;12.70;;
78740;SDS011;68062;48.726;9.370;2024-01-30T03:52:24;20.73;;;13.97;;
78740;SDS011;68062;48.726;9.370;2024-01-30T03:54:52;21.70;;;14.00;;
78740;SDS011;68062;48.726;9.370;2024-01-30T03:57:20;18.43;;;14.13;;
78740;SDS011;68062;48.726;9.370;2024-01-30T03:59:48;23.00;;;14.10;;
78740;SDS011;68062;48.726;9.370;2024-01-30T04:02:16;21.17;;;12.87;;
78740;SDS011;68062;48.726;9.370;2024-01-30T04:04:44;21.60;;;13.50;;
78740;SDS011;68062;48.726;9.370;2024-01-30T04:07:14;25.00;;;13.97;;
78740;SDS011;68062;48.726;9.370;2024-01-30T04:09:42;19.83;;;13.57;;
78740;SDS011;68062;48.726;9.370;2024-01-30T04:12:10;25.33;;;13.93;;
78740;SDS011;68062;48.726;9.370;2024-01-30T04:14:38;25.00;;;15.50;;
78740;SDS011;68062;48.726;9.370;2024-01-30T04:17:06;23.83;;;14.63;;
78740;SDS011;68062;48.726;9.370;2024-01-30T04:19:36;26.93;;;14.20;;
78740;SDS011;68062;48.726;9.370;2024-01-30T04:22:05;28.90;;;16.57;;
78740;SDS011;68062;48.726;9.370;2024-01-30T04:24:34;27.63;;;15.07;;
78740;SDS011;68062;48.726;9.370;2024-01-30T04:27:02;22.97;;;14.07;;
78740;SDS011;68062;48.726;9.370;2024-01-30T04:29:30;24.37;;;14.43;;
78740;SDS011;68062;48.726;9.370;2024-01-30T04:31:59;22.87;;;13.27;;
78740;SDS011;68062;48.726;9.370;2024-01-30T04:34:28;20.50;;;14.50;;
78740;SDS011;68062;48.726;9.370;2024-01-30T04:36:56;25.47;;;15.20;;
78740;SDS011;68062;48.726;9.370;2024-01-30T04:39:24;18.33;;;13.30;;
78740;SDS011;68062;48.726;9.370;2024-01-30T04:41:53;21.87;;;14.00;;
78740;SDS011;68062;48.726;9.370;2024-01-30T04:44:21;23.40;;;14.13;;
78740;SDS011;68062;48.726;9.370;2024-01-30T04:46:49;27.10;;;14.57;;
78740;SDS011;68062;48.726;9.370;2024-01-30T04:49:17;28.93;;;15.27;;
78740;SDS011;68062;48.726;9.370;2024-01-30T04:51:45;20.10;;;14.03;;
78740;SDS011;68062;48.726;9.370;2024-01-30T04:54:12;21.07;;;14.90;;
78740;SDS011;68062;48.726;9.370;2024-01-30T04:56:40;20.83;;;14.23;;
78740;SDS011;68062;48.726;9.370;2024-01-30T04:59:10;21.87;;;12.73;;
78740;SDS011;68062;48.726;9.370;2024-01-30T05:01:37;22.60;;;14.77;;
78740;SDS011;68062;48.726;9.370;2024-01-30T05:04:07;26.70;;;15.23;;
78740;SDS011;68062;48.726;9.370;2024-01-30T05:06:37;24.67;;;14.47;;
78740;SDS011;68062;48.726;9.370;2024-01-30T05:09:05;21.43;;;14.93;;
78740;SDS011;68062;48.726;9.370;2024-01-30T05:11:36;25.33;;;15.07;;
78740;SDS011;68062;48.726;9.370;2024-01-30T05:14:06;23.57;;;15.90;;
78740;SDS011;68062;48.726;9.370;2024-01-30T05:16:36;25.67;;;14.37;;
78740;SDS011;68062;48.726;9.370;2024-01-30T05:19:04;22.90;;;13.67;;
78740;SDS011;68062;48.726;9.370;2024-01-30T05:21:32;21.87;;;14.50;;
78740;SDS011;68062;48.726;9.370;2024-01-30T05:24:00;24.60;;;15.60;;
78740;SDS011;68062;48.726;9.370;2024-01-30T05:26:28;21.80;;;14.43;;
78740;SDS011;68062;48.726;9.370;2024-01-30T05:28:56;18.37;;;14.60;;
78740;SDS011;68062;48.726;9.370;2024-01-30T05:31:24;24.77;;;14.50;;
78740;SDS011;68062;48.726;9.370;2024-01-30T05:33:55;23.90;;;15.53;;
78740;SDS011;68062;48.726;9.370;2024-01-30T05:36:23;17.10;;;13.37;;
78740;SDS011;68062;48.726;9.370;2024-01-30T05:38:51;24.40;;;14.17;;
78740;SDS011;68062;48.726;9.370;2024-01-30T05:41:19;25.57;;;14.47;;
78740;SDS011;68062;48.726;9.370;2024-01-30T05:43:48;20.80;;;13.67;;
78740;SDS011;68062;48.726;9.370;2024-01-30T05:46:16;23.30;;;13.50;;
78740;SDS011;68062;48.726;9.370;2024-01-30T05:48:46;21.77;;;13.83;;
78740;SDS011;68062;48.726;9.370;2024-01-30T05:51:15;19.17;;;12.90;;
78740;SDS011;68062;48.726;9.370;2024-01-30T05:53:43;18.53;;;13.27;;
78740;SDS011;68062;48.726;9.370;2024-01-30T05:56:11;18.63;;;13.20;;
78740;SDS011;68062;48.726;9.370;2024-01-30T05:58:39;20.80;;;14.70;;
78740;SDS011;68062;48.726;9.370;2024-01-30T06:01:09;19.37;;;12.50;;
78740;SDS011;68062;48.726;9.370;2024-01-30T06:03:37;26.03;;;14.17;;
78740;SDS011;68062;48.726;9.370;2024-01-30T06:06:06;21.33;;;14.70;;
78740;SDS011;68062;48.726;9.370;2024-01-30T06:08:35;18.40;;;14.30;;
78740;SDS011;68062;48.726;9.370;2024-01-30T06:11:03;16.37;;;13.77;;
78740;SDS011;68062;48.726;9.370;2024-01-30T06:13:31;21.87;;;14.63;;
78740;SDS011;68062;48.726;9.370;2024-01-30T06:15:59;16.80;;;13.73;;
78740;SDS011;68062;48.726;9.370;2024-01-30T06:18:27;20.60;;;14.47;;
78740;SDS011;68062;48.726;9.370;2024-01-30T06:20:57;21.47;;;14.30;;
78740;SDS011;68062;48.726;9.370;2024-01-30T06:23:25;22.60;;;14.90;;
78740;SDS011;68062;48.726;9.370;2024-01-30T06:25:54;19.67;;;14.10;;
78740;SDS011;68062;48.726;9.370;2024-01-30T06:28:22;20.17;;;14.30;;
78740;SDS011;68062;48.726;9.370;2024-01-30T06:30:50;22.80;;;15.57;;
78740;SDS011;68062;48.726;9.370;2024-01-30T06:33:18;26.17;;;17.13;;
78740;SDS011;68062;48.726;9.370;2024-01-30T06:35:46;24.20;;;16.83;;
78740;SDS011;68062;48.726;9.370;2024-01-30T06:38:14;22.07;;;16.83;;
78740;SDS011;68062;48.726;9.370;2024-01-30T06:40:42;22.27;;;16.27;;
78740;SDS011;68062;48.726;9.370;2024-01-30T06:43:11;18.70;;;14.23;;
78740;SDS011;68062;48.726;9.370;2024-01-30T06:45:41;29.80;;;16.80;;
78740;SDS011;68062;48.726;9.370;2024-01-30T06:48:09;18.87;;;14.93;;
78740;SDS011;68062;48.726;9.370;2024-01-30T06:50:37;20.80;;;15.43;;
78740;SDS011;68062;48.726;9.370;2024-01-30T06:53:05;23.77;;;17.73;;
78740;SDS011;68062;48.726;9.370;2024-01-30T06:55:34;27.33;;;17.17;;
78740;SDS011;68062;48.726;9.370;2024-01-30T06:58:02;21.43;;;16.23;;
78740;SDS011;68062;48.726;9.370;2024-01-30T07:00:32;24.33;;;17.30;;
78740;SDS011;68062;48.726;9.370;2024-01-30T07:03:00;24.47;;;17.27;;
78740;SDS011;68062;48.726;9.370;2024-01-30T07:05:28;30.30;;;17.30;;
78740;SDS011;68062;48.726;9.370;2024-01-30T07:07:56;24.47;;;15.90;;
78740;SDS011;68062;48.726;9.370;2024-01-30T07:10:24;30.40;;;19.23;;
78740;SDS011;68062;48.726;9.370;2024-01-30T07:12:53;28.70;;;18.53;;
78740;SDS011;68062;48.726;9.370;2024-01-30T07:15:21;28.40;;;19.40;;
78740;SDS011;68062;48.726;9.370;2024-01-30T07:17:50;23.90;;;17.20;;
78740;SDS011;68062;48.726;9.370;2024-01-30T07:20:18;29.10;;;17.70;;
78740;SDS011;68062;48.726;9.370;2024-01-30T07:22:47;30.23;;;18.70;;
78740;SDS011;68062;48.726;9.370;2024-01-30T07:25:15;27.00;;;17.33;;
78740;SDS011;68062;48.726;9.370;2024-01-30T07:27:44;27.73;;;18.93;;
78740;SDS011;68062;48.726;9.370;2024-01-30T07:30:12;27.40;;;17.80;;
78740;SDS011;68062;48.726;9.370;2024-01-30T07:32:40;29.10;;;19.40;;
78740;SDS011;68062;48.726;9.370;2024-01-30T07:35:09;25.80;;;17.60;;
78740;SDS011;68062;48.726;9.370;2024-01-30T07:37:38;24.87;;;17.47;;
78740;SDS011;68062;48.726;9.370;2024-01-30T07:40:06;28.33;;;17.87;;
78740;SDS011;68062;48.726;9.370;2024-01-30T07:42:35;32.43;;;18.33;;
78740;SDS011;68062;48.726;9.370;2024-01-30T07:45:03;28.40;;;19.00;;
78740;SDS011;68062;48.726;9.370;2024-01-30T07:47:31;28.10;;;17.27;;
78740;SDS011;68062;48.726;9.370;2024-01-30T07:49:59;27.47;;;17.67;;
78740;SDS011;68062;48.726;9.370;2024-01-30T07:52:29;26.10;;;16.90;;
78740;SDS011;68062;48.726;9.370;2024-01-30T07:54:56;24.53;;;17.47;;
78740;SDS011;68062;48.726;9.370;2024-01-30T07:57:24;26.13;;;18.17;;
78740;SDS011;68062;48.726;9.370;2024-01-30T07:59:53;25.57;;;17.80;;
78740;SDS011;68062;48.726;9.370;2024-01-30T08:02:21;24.50;;;17.27;;
78740;SDS011;68062;48.726;9.370;2024-01-30T08:04:49;27.90;;;17.83;;
78740;SDS011;68062;48.726;9.370;2024-01-30T08:07:17;29.70;;;17.60;;
78740;SDS011;68062;48.726;9.370;2024-01-30T08:09:46;29.90;;;17.93;;
78740;SDS011;68062;48.726;9.370;2024-01-30T08:12:14;37.87;;;20.00;;
78740;SDS011;68062;48.726;9.370;2024-01-30T08:14:42;30.07;;;18.50;;
78740;SDS011;68062;48.726;9.370;2024-01-30T08:17:10;33.67;;;17.40;;
78740;SDS011;68062;48.726;9.370;2024-01-30T08:19:38;36.00;;;20.40;;
78740;SDS011;68062;48.726;9.370;2024-01-30T08:22:06;36.63;;;19.80;;
78740;SDS011;68062;48.726;9.370;2024-01-30T08:24:34;32.23;;;19.70;;
78740;SDS011;68062;48.726;9.370;2024-01-30T08:27:03;36.13;;;19.77;;
78740;SDS011;68062;48.726;9.370;2024-01-30T08:29:31;31.20;;;18.07;;
78740;SDS011;68062;48.726;9.370;2024-01-30T08:31:59;28.33;;;20.73;;
78740;SDS011;68062;48.726;9.370;2024-01-30T08:34:27;27.57;;;17.20;;
78740;SDS011;68062;48.726;9.370;2024-01-30T08:36:55;31.47;;;18.20;;
78740;SDS011;68062;48.726;9.370;2024-01-30T08:39:24;30.83;;;18.53;;
78740;SDS011;68062;48.726;9.370;2024-01-30T08:41:53;25.93;;;17.20;;
78740;SDS011;68062;48.726;9.370;2024-01-30T08:44:23;23.63;;;14.80;;
78740;SDS011;68062;48.726;9.370;2024-01-30T08:46:51;25.97;;;16.10;;
78740;SDS011;68062;48.726;9.370;2024-01-30T08:49:22;25.07;;;14.37;;
78740;SDS011;68062;48.726;9.370;2024-01-30T08:51:50;22.90;;;15.13;;
78740;SDS011;68062;48.726;9.370;2024-01-30T08:54:18;24.10;;;16.20;;
78740;SDS011;68062;48.726;9.370;2024-01-30T08:56:46;23.93;;;16.77;;
78740;SDS011;68062;48.726;9.370;2024-01-30T08:59:14;20.53;;;14.90;;
78740;SDS011;68062;48.726;9.370;2024-01-30T09:01:43;22.83;;;16.03;;
78740;SDS011;68062;48.726;9.370;2024-01-30T09:04:29;24.30;;;14.60;;
78740;SDS011;68062;48.726;9.370;2024-01-30T09:06:56;23.23;;;15.27;;
78740;SDS011;68062;48.726;9.370;2024-01-30T09:09:26;24.73;;;15.80;;
78740;SDS011;68062;48.726;9.370;2024-01-30T09:11:54;18.73;;;14.63;;
78740;SDS011;68062;48.726;9.370;2024-01-30T09:14:22;18.50;;;14.40;;
78740;SDS011;68062;48.726;9.370;2024-01-30T09:16:51;20.53;;;16.30;;
78740;SDS011;68062;48.726;9.370;2024-01-30T09:19:19;20.57;;;17.17;;
78740;SDS011;68062;48.726;9.370;2024-01-30T09:21:47;21.03;;;16.03;;
78740;SDS011;68062;48.726;9.370;2024-01-30T09:24:16;20.17;;;14.87;;
78740;SDS011;68062;48.726;9.370;2024-01-30T09:26:44;16.70;;;14.10;;
78740;SDS011;68062;48.726;9.370;2024-01-30T09:29:12;19.63;;;14.00;;
78740;SDS011;68062;48.726;9.370;2024-01-30T09:31:42;21.43;;;14.97;;
78740;SDS011;68062;48.726;9.370;2024-01-30T09:34:12;20.60;;;14.83;;
78740;SDS011;68062;48.726;9.370;2024-01-30T09:36:40;18.33;;;14.37;;
78740;SDS011;68062;48.726;9.370;2024-01-30T09:39:09;15.00;;;13.97;;
78740;SDS011;68062;48.726;9.370;2024-01-30T09:41:39;15.07;;;13.27;;
78740;SDS011;68062;48.726;9.370;2024-01-30T09:44:13;22.10;;;15.17;;
78740;SDS011;68062;48.726;9.370;2024-01-30T09:46:43;15.97;;;13.03;;
78740;SDS011;68062;48.726;9.370;2024-01-30T09:49:15;19.33;;;13.47;;
78740;SDS011;68062;48.726;9.370;2024-01-30T09:51:47;18.40;;;14.23;;
78740;SDS011;68062;48.726;9.370;2024-01-30T09:54:16;20.20;;;13.10;;
78740;SDS011;68062;48.726;9.370;2024-01-30T09:56:45;20.07;;;13.73;;
78740;SDS011;68062;48.726;9.370;2024-01-30T09:59:13;12.70;;;11.80;;
78740;SDS011;68062;48.726;9.370;2024-01-30T10:01:41;14.73;;;12.67;;
78740;SDS011;68062;48.726;9.370;2024-01-30T10:04:10;16.83;;;13.47;;
78740;SDS011;68062;48.726;9.370;2024-01-30T10:06:39;17.53;;;13.73;;
78740;SDS011;68062;48.726;9.370;2024-01-30T10:09:08;17.93;;;13.47;;
78740;SDS011;68062;48.726;9.370;2024-01-30T10:11:36;18.00;;;12.77;;
78740;SDS011;68062;48.726;9.370;2024-01-30T10:14:04;16.53;;;13.30;;
78740;SDS011;68062;48.726;9.370;2024-01-30T10:16:33;15.70;;;12.57;;
78740;SDS011;68062;48.726;9.370;2024-01-30T10:19:02;17.17;;;11.90;;
78740;SDS011;68062;48.726;9.370;2024-01-30T10:21:30;15.93;;;12.47;;
78740;SDS011;68062;48.726;9.370;2024-01-30T10:24:00;19.80;;;15.03;;
78740;SDS011;68062;48.726;9.370;2024-01-30T10:26:28;14.80;;;13.10;;
78740;SDS011;68062;48.726;9.370;2024-01-30T10:28:59;16.17;;;11.80;;
78740;SDS011;68062;48.726;9.370;2024-01-30T10:31:27;13.73;;;10.93;;
78740;SDS011;68062;48.726;9.370;2024-01-30T10:33:55;13.83;;;10.10;;
78740;SDS011;68062;48.726;9.370;2024-01-30T10:36:39;12.37;;;10.20;;
78740;SDS011;68062;48.726;9.370;2024-01-30T10:39:10;15.77;;;9.83;;
78740;SDS011;68062;48.726;9.370;2024-01-30T10:41:39;13.30;;;11.00;;
78740;SDS011;68062;48.726;9.370;2024-01-30T10:44:11;18.60;;;11.50;;
78740;SDS011;68062;48.726;9.370;2024-01-30T10:46:46;13.30;;;11.50;;
78740;SDS011;68062;48.726;9.370;2024-01-30T10:49:18;15.07;;;11.50;;
78740;SDS011;68062;48.726;9.370;2024-01-30T10:51:48;12.17;;;10.33;;
78740;SDS011;68062;48.726;9.370;2024-01-30T10:54:19;15.10;;;11.00;;
78740;SDS011;68062;48.726;9.370;2024-01-30T10:56:48;13.30;;;9.60;;
78740;SDS011;68062;48.726;9.370;2024-01-30T10:59:17;14.20;;;10.83;;
78740;SDS011;68062;48.726;9.370;2024-01-30T11:01:46;16.20;;;10.07;;
78740;SDS011;68062;48.726;9.370;2024-01-30T11:04:14;13.57;;;10.50;;
78740;SDS011;68062;48.726;9.370;2024-01-30T11:06:42;11.00;;;8.80;;
78740;SDS011;68062;48.726;9.370;2024-01-30T11:09:11;10.37;;;9.77;;
78740;SDS011;68062;48.726;9.370;2024-01-30T11:11:51;14.23;;;9.97;;
78740;SDS011;68062;48.726;9.370;2024-01-30T11:14:26;10.57;;;9.80;;
78740;SDS011;68062;48.726;9.370;2024-01-30T11:16:56;14.60;;;10.00;;
78740;SDS011;68062;48.726;9.370;2024-01-30T11:19:24;17.23;;;11.40;;
78740;SDS011;68062;48.726;9.370;2024-01-30T11:21:54;11.70;;;9.30;;
78740;SDS011;68062;48.726;9.370;2024-01-30T11:24:24;10.97;;;9.63;;
78740;SDS011;68062;48.726;9.370;2024-01-30T11:26:56;10.10;;;9.40;;
78740;SDS011;68062;48.726;9.370;2024-01-30T11:29:25;13.53;;;10.63;;
78740;SDS011;68062;48.726;9.370;2024-01-30T11:31:54;11.87;;;10.00;;
78740;SDS011;68062;48.726;9.370;2024-01-30T11:34:25;13.90;;;10.33;;
78740;SDS011;68062;48.726;9.370;2024-01-30T11:36:55;16.67;;;10.53;;
78740;SDS011;68062;48.726;9.370;2024-01-30T11:39:26;13.03;;;9.87;;
78740;SDS011;68062;48.726;9.370;2024-01-30T11:41:54;19.60;;;11.73;;
78740;SDS011;68062;48.726;9.370;2024-01-30T11:44:23;12.20;;;10.13;;
78740;SDS011;68062;48.726;9.370;2024-01-30T11:46:52;14.13;;;9.90;;
78740;SDS011;68062;48.726;9.370;2024-01-30T11:49:20;16.00;;;10.97;;
78740;SDS011;68062;48.726;9.370;2024-01-30T11:51:48;18.80;;;13.13;;
78740;SDS011;68062;48.726;9.370;2024-01-30T11:54:17;17.87;;;11.00;;
78740;SDS011;68062;48.726;9.370;2024-01-30T11:56:45;13.77;;;11.10;;
78740;SDS011;68062;48.726;9.370;2024-01-30T11:59:13;15.10;;;11.00;;
78740;SDS011;68062;48.726;9.370;2024-01-30T12:01:42;14.17;;;10.50;;
78740;SDS011;68062;48.726;9.370;2024-01-30T12:04:11;12.50;;;10.73;;
78740;SDS011;68062;48.726;9.370;2024-01-30T12:06:39;16.00;;;11.17;;
78740;SDS011;68062;48.726;9.370;2024-01-30T12:09:08;12.57;;;9.70;;
78740;SDS011;68062;48.726;9.370;2024-01-30T12:11:45;14.40;;;12.20;;
78740;SDS011;68062;48.726;9.370;2024-01-30T12:14:14;13.50;;;10.37;;
78740;SDS011;68062;48.726;9.370;2024-01-30T12:16:47;11.50;;;9.43;;
78740;SDS011;68062;48.726;9.370;2024-01-30T12:19:21;12.70;;;10.00;;
78740;SDS011;68062;48.726;9.370;2024-01-30T12:21:59;12.53;;;10.70;;
78740;SDS011;68062;48.726;9.370;2024-01-30T12:24:27;16.57;;;11.37;;
78740;SDS011;68062;48.726;9.370;2024-01-30T12:26:57;17.67;;;12.03;;
78740;SDS011;68062;48.726;9.370;2024-01-30T12:29:27;14.87;;;11.67;;
78740;SDS011;68062;48.726;9.370;2024-01-30T12:32:02;13.07;;;10.70;;
78740;SDS011;68062;48.726;9.370;2024-01-30T12:34:30;13.40;;;10.40;;
78740;SDS011;68062;48.726;9.370;2024-01-30T12:37:04;16.60;;;10.47;;
78740;SDS011;68062;48.726;9.370;2024-01-30T12:39:32;17.80;;;12.07;;
78740;SDS011;68062;48.726;9.370;2024-01-30T12:42:01;11.00;;;10.43;;
78740;SDS011;68062;48.726;9.370;2024-01-30T12:44:29;13.00;;;10.80;;
78740;SDS011;68062;48.726;9.370;2024-01-30T12:46:57;11.20;;;10.53;;
78740;SDS011;68062;48.726;9.370;2024-01-30T12:49:29;15.70;;;11.10;;
78740;SDS011;68062;48.726;9.370;2024-01-30T12:51:57;12.57;;;10.67;;
78740;SDS011;68062;48.726;9.370;2024-01-30T12:54:26;15.20;;;11.30;;
78740;SDS011;68062;48.726;9.370;2024-01-30T12:56:54;14.20;;;11.17;;
78740;SDS011;68062;48.726;9.370;2024-01-30T12:59:22;12.67;;;9.50;;
78740;SDS011;68062;48.726;9.370;2024-01-30T13:01:50;12.23;;;10.50;;
78740;SDS011;68062;48.726;9.370;2024-01-30T13:04:18;12.90;;;10.90;;
78740;SDS011;68062;48.726;9.370;2024-01-30T13:06:48;11.77;;;10.30;;
78740;SDS011;68062;48.726;9.370;2024-01-30T13:09:16;13.33;;;10.43;;
78740;SDS011;68062;48.726;9.370;2024-01-30T13:11:44;15.90;;;10.53;;
78740;SDS011;68062;48.726;9.370;2024-01-30T13:14:11;11.73;;;10.30;;
78740;SDS011;68062;48.726;9.370;2024-01-30T13:16:40;13.83;;;9.97;;
78740;SDS011;68062;48.726;9.370;2024-01-30T13:19:07;14.50;;;10.37;;
78740;SDS011;68062;48.726;9.370;2024-01-30T13:21:35;10.60;;;8.60;;
78740;SDS011;68062;48.726;9.370;2024-01-30T13:24:05;11.10;;;9.60;;
78740;SDS011;68062;48.726;9.370;2024-01-30T13:26:34;12.70;;;10.00;;
78740;SDS011;68062;48.726;9.370;2024-01-30T13:29:02;10.33;;;8.50;;
78740;SDS011;68062;48.726;9.370;2024-01-30T13:31:30;13.93;;;10.30;;
78740;SDS011;68062;48.726;9.370;2024-01-30T13:33:57;11.87;;;9.50;;
78740;SDS011;68062;48.726;9.370;2024-01-30T13:36:26;11.03;;;9.57;;
78740;SDS011;68062;48.726;9.370;2024-01-30T13:38:54;16.23;;;9.70;;
78740;SDS011;68062;48.726;9.370;2024-01-30T13:41:23;15.10;;;9.93;;
78740;SDS011;68062;48.726;9.370;2024-01-30T13:43:51;11.50;;;9.13;;
78740;SDS011;68062;48.726;9.370;2024-01-30T13:46:18;11.37;;;8.73;;
78740;SDS011;68062;48.726;9.370;2024-01-30T13:48:46;12.83;;;9.27;;
78740;SDS011;68062;48.726;9.370;2024-01-30T13:51:14;11.60;;;9.47;;
78740;SDS011;68062;48.726;9.370;2024-01-30T13:53:43;11.83;;;8.87;;
78740;SDS011;68062;48.726;9.370;2024-01-30T13:56:11;11.47;;;9.50;;
78740;SDS011;68062;48.726;9.370;2024-01-30T13:58:40;16.10;;;10.80;;
78740;SDS011;68062;48.726;9.370;2024-01-30T14:01:08;13.40;;;10.17;;
78740;SDS011;68062;48.726;9.370;2024-01-30T14:03:36;12.77;;;9.70;;
78740;SDS011;68062;48.726;9.370;2024-01-30T14:06:04;12.40;;;10.10;;
78740;SDS011;68062;48.726;9.370;2024-01-30T14:08:34;11.53;;;10.70;;
78740;SDS011;68062;48.726;9.370;2024-01-30T14:11:02;13.40;;;9.87;;
78740;SDS011;68062;48.726;9.370;2024-01-30T14:13:30;11.43;;;8.90;;
78740;SDS011;68062;48.726;9.370;2024-01-30T14:16:00;10.00;;;9.53;;
78740;SDS011;68062;48.726;9.370;2024-01-30T14:18:33;12.60;;;9.97;;
78740;SDS011;68062;48.726;9.370;2024-01-30T14:21:03;12.70;;;9.10;;
78740;SDS011;68062;48.726;9.370;2024-01-30T14:23:33;11.77;;;9.10;;
78740;SDS011;68062;48.726;9.370;2024-01-30T14:26:01;13.13;;;8.47;;
78740;SDS011;68062;48.726;9.370;2024-01-30T14:28:30;13.10;;;9.40;;
78740;SDS011;68062;48.726;9.370;2024-01-30T14:30:58;10.37;;;8.67;;
78740;SDS011;68062;48.726;9.370;2024-01-30T14:33:27;9.90;;;8.47;;